sensor_id;sensor_type;location;lat;lon;timestamp;P1;durP1;ratioP1;P2;durP2;ratioP2
20649;SDS011;10484;48.736;9.332;2023-08-06T00:01:49;5.40;;;4.90;;
20649;SDS011;10484;48.736;9.332;2023-08-06T00:04:15;5.57;;;5.07;;
20649;SDS011;10484;48.736;9.332;2023-08-06T00:06:40;5.27;;;4.87;;
20649;SDS011;10484;48.736;9.332;2023-08-06T00:09:06;5.50;;;5.00;;
20649;SDS011;10484;48.736;9.332;2023-08-06T00:11:31;5.10;;;4.70;;
20649;SDS011;10484;48.736;9.332;2023-08-06T00:13:57;5.03;;;4.63;;
20649;SDS011;10484;48.736;9.332;2023-08-06T00:16:22;4.93;;;4.53;;
20649;SDS011;10484;48.736;9.332;2023-08-06T00:18:48;5.27;;;4.87;;
20649;SDS011;10484;48.736;9.332;2023-08-06T00:21:14;5.33;;;4.93;;
20649;SDS011;10484;48.736;9.332;2023-08-06T00:23:39;6.20;;;5.70;;
20649;SDS011;10484;48.736;9.332;2023-08-06T00:26:06;5.00;;;4.13;;
20649;SDS011;10484;48.736;9.332;2023-08-06T00:28:31;6.63;;;5.67;;
20649;SDS011;10484;48.736;9.332;2023-08-06T00:30:57;5.60;;;5.20;;
20649;SDS011;10484;48.736;9.332;2023-08-06T00:33:23;5.37;;;4.87;;
20649;SDS011;10484;48.736;9.332;2023-08-06T00:35:49;6.10;;;5.60;;
20649;SDS011;10484;48.736;9.332;2023-08-06T00:38:14;8.40;;;5.30;;
20649;SDS011;10484;48.736;9.332;2023-08-06T00:40:40;6.03;;;5.50;;
20649;SDS011;10484;48.736;9.332;2023-08-06T00:43:06;5.10;;;4.70;;
20649;SDS011;10484;48.736;9.332;2023-08-06T00:45:33;5.80;;;4.60;;
20649;SDS011;10484;48.736;9.332;2023-08-06T00:48:01;6.03;;;5.50;;
20649;SDS011;10484;48.736;9.332;2023-08-06T00:50:28;5.97;;;5.47;;
20649;SDS011;10484;48.736;9.332;2023-08-06T00:52:54;6.03;;;5.60;;
20649;SDS011;10484;48.736;9.332;2023-08-06T00:55:20;5.10;;;4.60;;
20649;SDS011;10484;48.736;9.332;2023-08-06T00:57:46;5.97;;;5.30;;
20649;SDS011;10484;48.736;9.332;2023-08-06T01:00:12;6.00;;;5.40;;
20649;SDS011;10484;48.736;9.332;2023-08-06T01:02:38;6.50;;;5.90;;
20649;SDS011;10484;48.736;9.332;2023-08-06T01:05:03;5.53;;;4.63;;
20649;SDS011;10484;48.736;9.332;2023-08-06T01:07:36;6.53;;;5.23;;
20649;SDS011;10484;48.736;9.332;2023-08-06T01:10:38;5.13;;;4.70;;
20649;SDS011;10484;48.736;9.332;2023-08-06T01:13:16;5.80;;;5.20;;
20649;SDS011;10484;48.736;9.332;2023-08-06T01:15:56;6.27;;;5.67;;
20649;SDS011;10484;48.736;9.332;2023-08-06T01:18:24;5.43;;;4.93;;
20649;SDS011;10484;48.736;9.332;2023-08-06T01:20:50;5.50;;;5.10;;
20649;SDS011;10484;48.736;9.332;2023-08-06T01:23:16;6.30;;;5.80;;
20649;SDS011;10484;48.736;9.332;2023-08-06T01:25:56;5.97;;;5.47;;
20649;SDS011;10484;48.736;9.332;2023-08-06T01:28:48;5.40;;;5.00;;
20649;SDS011;10484;48.736;9.332;2023-08-06T01:31:35;6.10;;;5.50;;
20649;SDS011;10484;48.736;9.332;2023-08-06T01:34:03;6.13;;;5.63;;
20649;SDS011;10484;48.736;9.332;2023-08-06T01:36:32;6.97;;;6.47;;
20649;SDS011;10484;48.736;9.332;2023-08-06T01:38:58;7.43;;;6.80;;
20649;SDS011;10484;48.736;9.332;2023-08-06T01:41:24;5.70;;;5.20;;
20649;SDS011;10484;48.736;9.332;2023-08-06T01:43:50;7.53;;;5.63;;
20649;SDS011;10484;48.736;9.332;2023-08-06T01:46:15;8.30;;;6.00;;
20649;SDS011;10484;48.736;9.332;2023-08-06T01:48:41;6.07;;;5.57;;
20649;SDS011;10484;48.736;9.332;2023-08-06T01:51:06;7.13;;;6.53;;
20649;SDS011;10484;48.736;9.332;2023-08-06T01:53:32;7.93;;;7.17;;
20649;SDS011;10484;48.736;9.332;2023-08-06T01:55:58;7.50;;;6.80;;
20649;SDS011;10484;48.736;9.332;2023-08-06T01:58:24;6.33;;;5.83;;
20649;SDS011;10484;48.736;9.332;2023-08-06T02:00:49;7.60;;;6.90;;
20649;SDS011;10484;48.736;9.332;2023-08-06T02:03:15;6.93;;;6.27;;
20649;SDS011;10484;48.736;9.332;2023-08-06T02:05:40;6.67;;;6.07;;
20649;SDS011;10484;48.736;9.332;2023-08-06T02:08:06;7.67;;;6.97;;
20649;SDS011;10484;48.736;9.332;2023-08-06T02:10:32;7.70;;;7.00;;
20649;SDS011;10484;48.736;9.332;2023-08-06T02:12:58;7.47;;;6.77;;
20649;SDS011;10484;48.736;9.332;2023-08-06T02:15:23;5.30;;;4.80;;
20649;SDS011;10484;48.736;9.332;2023-08-06T02:17:49;6.37;;;5.77;;
20649;SDS011;10484;48.736;9.332;2023-08-06T02:20:15;6.37;;;5.23;;
20649;SDS011;10484;48.736;9.332;2023-08-06T02:22:40;4.77;;;4.47;;
20649;SDS011;10484;48.736;9.332;2023-08-06T02:25:06;5.60;;;4.10;;
20649;SDS011;10484;48.736;9.332;2023-08-06T02:27:32;4.57;;;4.17;;
20649;SDS011;10484;48.736;9.332;2023-08-06T02:29:57;4.70;;;4.13;;
20649;SDS011;10484;48.736;9.332;2023-08-06T02:32:23;4.93;;;3.63;;
20649;SDS011;10484;48.736;9.332;2023-08-06T02:34:48;4.33;;;3.90;;
20649;SDS011;10484;48.736;9.332;2023-08-06T02:37:14;3.30;;;3.00;;
20649;SDS011;10484;48.736;9.332;2023-08-06T02:39:39;3.60;;;3.30;;
20649;SDS011;10484;48.736;9.332;2023-08-06T02:42:08;3.87;;;3.33;;
20649;SDS011;10484;48.736;9.332;2023-08-06T02:44:34;2.80;;;2.60;;
20649;SDS011;10484;48.736;9.332;2023-08-06T02:47:00;4.20;;;3.13;;
20649;SDS011;10484;48.736;9.332;2023-08-06T02:49:26;5.77;;;2.97;;
20649;SDS011;10484;48.736;9.332;2023-08-06T02:51:52;3.80;;;2.70;;
20649;SDS011;10484;48.736;9.332;2023-08-06T02:54:18;4.20;;;3.20;;
20649;SDS011;10484;48.736;9.332;2023-08-06T02:56:44;5.30;;;3.27;;
20649;SDS011;10484;48.736;9.332;2023-08-06T02:59:11;3.07;;;2.87;;
20649;SDS011;10484;48.736;9.332;2023-08-06T03:01:37;4.00;;;2.67;;
20649;SDS011;10484;48.736;9.332;2023-08-06T03:04:02;3.50;;;2.60;;
20649;SDS011;10484;48.736;9.332;2023-08-06T03:06:28;2.83;;;2.63;;
20649;SDS011;10484;48.736;9.332;2023-08-06T03:08:54;3.80;;;2.90;;
20649;SDS011;10484;48.736;9.332;2023-08-06T03:11:19;5.13;;;3.10;;
20649;SDS011;10484;48.736;9.332;2023-08-06T03:13:45;3.50;;;3.20;;
20649;SDS011;10484;48.736;9.332;2023-08-06T03:16:14;4.47;;;3.13;;
20649;SDS011;10484;48.736;9.332;2023-08-06T03:18:40;6.57;;;3.50;;
20649;SDS011;10484;48.736;9.332;2023-08-06T03:21:06;4.07;;;2.90;;
20649;SDS011;10484;48.736;9.332;2023-08-06T03:23:31;3.97;;;2.97;;
20649;SDS011;10484;48.736;9.332;2023-08-06T03:26:03;3.33;;;3.03;;
20649;SDS011;10484;48.736;9.332;2023-08-06T03:28:28;3.50;;;3.20;;
20649;SDS011;10484;48.736;9.332;2023-08-06T03:31:01;3.73;;;3.33;;
20649;SDS011;10484;48.736;9.332;2023-08-06T03:33:27;4.50;;;3.00;;
20649;SDS011;10484;48.736;9.332;2023-08-06T03:35:52;3.33;;;3.03;;
20649;SDS011;10484;48.736;9.332;2023-08-06T03:38:18;5.30;;;3.20;;
20649;SDS011;10484;48.736;9.332;2023-08-06T03:40:43;3.80;;;3.50;;
20649;SDS011;10484;48.736;9.332;2023-08-06T03:43:09;3.77;;;3.30;;
20649;SDS011;10484;48.736;9.332;2023-08-06T03:45:34;4.67;;;3.57;;
20649;SDS011;10484;48.736;9.332;2023-08-06T03:48:00;3.40;;;3.10;;
20649;SDS011;10484;48.736;9.332;2023-08-06T03:50:25;5.03;;;3.23;;
20649;SDS011;10484;48.736;9.332;2023-08-06T03:52:51;4.50;;;3.03;;
20649;SDS011;10484;48.736;9.332;2023-08-06T03:55:16;5.20;;;2.90;;
20649;SDS011;10484;48.736;9.332;2023-08-06T03:57:42;4.93;;;3.53;;
20649;SDS011;10484;48.736;9.332;2023-08-06T04:00:07;3.33;;;2.60;;
20649;SDS011;10484;48.736;9.332;2023-08-06T04:02:33;3.13;;;2.57;;
20649;SDS011;10484;48.736;9.332;2023-08-06T04:05:00;2.93;;;2.73;;
20649;SDS011;10484;48.736;9.332;2023-08-06T04:07:26;4.03;;;3.03;;
20649;SDS011;10484;48.736;9.332;2023-08-06T04:09:52;3.33;;;3.03;;
20649;SDS011;10484;48.736;9.332;2023-08-06T04:12:23;3.10;;;2.80;;
20649;SDS011;10484;48.736;9.332;2023-08-06T04:14:49;6.57;;;3.03;;
20649;SDS011;10484;48.736;9.332;2023-08-06T04:17:16;3.10;;;2.80;;
20649;SDS011;10484;48.736;9.332;2023-08-06T04:19:45;3.93;;;2.60;;
20649;SDS011;10484;48.736;9.332;2023-08-06T04:22:12;3.03;;;2.63;;
20649;SDS011;10484;48.736;9.332;2023-08-06T04:24:38;2.87;;;2.67;;
20649;SDS011;10484;48.736;9.332;2023-08-06T04:27:04;2.83;;;2.60;;
20649;SDS011;10484;48.736;9.332;2023-08-06T04:29:29;3.30;;;2.67;;
20649;SDS011;10484;48.736;9.332;2023-08-06T04:31:55;3.87;;;2.77;;
20649;SDS011;10484;48.736;9.332;2023-08-06T04:34:21;3.70;;;3.23;;
20649;SDS011;10484;48.736;9.332;2023-08-06T04:36:46;5.80;;;2.70;;
20649;SDS011;10484;48.736;9.332;2023-08-06T04:39:12;3.43;;;2.53;;
20649;SDS011;10484;48.736;9.332;2023-08-06T04:41:37;3.70;;;2.70;;
20649;SDS011;10484;48.736;9.332;2023-08-06T04:44:03;2.93;;;2.53;;
20649;SDS011;10484;48.736;9.332;2023-08-06T04:46:29;3.20;;;2.57;;
20649;SDS011;10484;48.736;9.332;2023-08-06T04:48:54;3.80;;;2.43;;
20649;SDS011;10484;48.736;9.332;2023-08-06T04:51:20;3.10;;;2.80;;
20649;SDS011;10484;48.736;9.332;2023-08-06T04:53:46;3.53;;;2.87;;
20649;SDS011;10484;48.736;9.332;2023-08-06T04:56:12;3.40;;;3.10;;
20649;SDS011;10484;48.736;9.332;2023-08-06T04:58:38;3.33;;;1.80;;
20649;SDS011;10484;48.736;9.332;2023-08-06T05:01:03;2.67;;;2.00;;
20649;SDS011;10484;48.736;9.332;2023-08-06T05:03:29;1.63;;;1.53;;
20649;SDS011;10484;48.736;9.332;2023-08-06T05:05:54;1.67;;;1.57;;
20649;SDS011;10484;48.736;9.332;2023-08-06T05:08:20;2.90;;;1.70;;
20649;SDS011;10484;48.736;9.332;2023-08-06T05:10:45;2.40;;;1.30;;
20649;SDS011;10484;48.736;9.332;2023-08-06T05:13:11;3.07;;;1.80;;
20649;SDS011;10484;48.736;9.332;2023-08-06T05:15:37;1.60;;;1.50;;
20649;SDS011;10484;48.736;9.332;2023-08-06T05:18:04;3.47;;;1.47;;
20649;SDS011;10484;48.736;9.332;2023-08-06T05:20:30;2.80;;;1.47;;
20649;SDS011;10484;48.736;9.332;2023-08-06T05:22:56;2.80;;;1.10;;
20649;SDS011;10484;48.736;9.332;2023-08-06T05:25:21;3.10;;;1.23;;
20649;SDS011;10484;48.736;9.332;2023-08-06T05:27:47;2.90;;;1.47;;
20649;SDS011;10484;48.736;9.332;2023-08-06T05:30:12;1.57;;;1.00;;
20649;SDS011;10484;48.736;9.332;2023-08-06T05:32:38;1.40;;;1.20;;
20649;SDS011;10484;48.736;9.332;2023-08-06T05:35:03;2.40;;;1.23;;
20649;SDS011;10484;48.736;9.332;2023-08-06T05:37:29;0.90;;;0.80;;
20649;SDS011;10484;48.736;9.332;2023-08-06T05:39:55;3.50;;;1.30;;
20649;SDS011;10484;48.736;9.332;2023-08-06T05:42:20;3.07;;;1.20;;
20649;SDS011;10484;48.736;9.332;2023-08-06T05:44:46;4.10;;;1.27;;
20649;SDS011;10484;48.736;9.332;2023-08-06T05:47:11;4.67;;;1.30;;
20649;SDS011;10484;48.736;9.332;2023-08-06T05:49:37;1.30;;;1.20;;
20649;SDS011;10484;48.736;9.332;2023-08-06T05:52:03;1.53;;;1.30;;
20649;SDS011;10484;48.736;9.332;2023-08-06T05:54:31;1.37;;;0.70;;
20649;SDS011;10484;48.736;9.332;2023-08-06T05:56:57;2.17;;;1.13;;
20649;SDS011;10484;48.736;9.332;2023-08-06T05:59:22;2.37;;;1.20;;
20649;SDS011;10484;48.736;9.332;2023-08-06T06:01:48;3.60;;;0.77;;
20649;SDS011;10484;48.736;9.332;2023-08-06T06:04:13;1.90;;;0.80;;
20649;SDS011;10484;48.736;9.332;2023-08-06T06:06:39;4.70;;;0.80;;
20649;SDS011;10484;48.736;9.332;2023-08-06T06:09:06;3.73;;;0.97;;
20649;SDS011;10484;48.736;9.332;2023-08-06T06:11:32;2.00;;;1.20;;
20649;SDS011;10484;48.736;9.332;2023-08-06T06:13:57;1.00;;;0.60;;
20649;SDS011;10484;48.736;9.332;2023-08-06T06:16:23;1.37;;;0.87;;
20649;SDS011;10484;48.736;9.332;2023-08-06T06:18:48;2.40;;;0.90;;
20649;SDS011;10484;48.736;9.332;2023-08-06T06:21:14;1.33;;;0.87;;
20649;SDS011;10484;48.736;9.332;2023-08-06T06:23:39;0.87;;;0.70;;
20649;SDS011;10484;48.736;9.332;2023-08-06T06:26:05;1.77;;;0.90;;
20649;SDS011;10484;48.736;9.332;2023-08-06T06:28:31;1.23;;;0.87;;
20649;SDS011;10484;48.736;9.332;2023-08-06T06:30:59;2.30;;;1.07;;
20649;SDS011;10484;48.736;9.332;2023-08-06T06:33:26;0.83;;;0.80;;
20649;SDS011;10484;48.736;9.332;2023-08-06T06:35:51;3.13;;;0.97;;
20649;SDS011;10484;48.736;9.332;2023-08-06T06:38:17;1.90;;;0.80;;
20649;SDS011;10484;48.736;9.332;2023-08-06T06:40:42;2.60;;;1.03;;
20649;SDS011;10484;48.736;9.332;2023-08-06T06:43:08;2.97;;;1.20;;
20649;SDS011;10484;48.736;9.332;2023-08-06T06:45:33;2.13;;;0.67;;
20649;SDS011;10484;48.736;9.332;2023-08-06T06:47:59;0.90;;;0.70;;
20649;SDS011;10484;48.736;9.332;2023-08-06T06:50:24;2.53;;;0.80;;
20649;SDS011;10484;48.736;9.332;2023-08-06T06:52:51;1.93;;;1.20;;
20649;SDS011;10484;48.736;9.332;2023-08-06T06:55:16;1.30;;;0.60;;
20649;SDS011;10484;48.736;9.332;2023-08-06T06:57:42;2.40;;;0.93;;
20649;SDS011;10484;48.736;9.332;2023-08-06T07:00:08;1.80;;;0.83;;
20649;SDS011;10484;48.736;9.332;2023-08-06T07:02:33;1.37;;;1.00;;
20649;SDS011;10484;48.736;9.332;2023-08-06T07:04:59;1.83;;;0.80;;
20649;SDS011;10484;48.736;9.332;2023-08-06T07:07:25;0.70;;;0.50;;
20649;SDS011;10484;48.736;9.332;2023-08-06T07:09:50;1.87;;;0.63;;
20649;SDS011;10484;48.736;9.332;2023-08-06T07:12:16;1.67;;;0.60;;
20649;SDS011;10484;48.736;9.332;2023-08-06T07:14:41;1.17;;;0.50;;
20649;SDS011;10484;48.736;9.332;2023-08-06T07:17:07;2.00;;;0.70;;
20649;SDS011;10484;48.736;9.332;2023-08-06T07:19:32;1.43;;;0.70;;
20649;SDS011;10484;48.736;9.332;2023-08-06T07:21:58;1.23;;;0.50;;
20649;SDS011;10484;48.736;9.332;2023-08-06T07:24:23;1.13;;;0.60;;
20649;SDS011;10484;48.736;9.332;2023-08-06T07:26:49;3.40;;;0.60;;
20649;SDS011;10484;48.736;9.332;2023-08-06T07:29:15;1.20;;;0.50;;
20649;SDS011;10484;48.736;9.332;2023-08-06T07:31:44;0.50;;;0.50;;
20649;SDS011;10484;48.736;9.332;2023-08-06T07:34:10;2.20;;;0.50;;
20649;SDS011;10484;48.736;9.332;2023-08-06T07:36:36;1.60;;;0.40;;
20649;SDS011;10484;48.736;9.332;2023-08-06T07:39:01;0.50;;;0.40;;
20649;SDS011;10484;48.736;9.332;2023-08-06T07:41:27;1.63;;;0.47;;
20649;SDS011;10484;48.736;9.332;2023-08-06T07:43:53;0.90;;;0.53;;
20649;SDS011;10484;48.736;9.332;2023-08-06T07:46:18;0.90;;;0.50;;
20649;SDS011;10484;48.736;9.332;2023-08-06T07:48:44;1.90;;;0.33;;
20649;SDS011;10484;48.736;9.332;2023-08-06T07:51:09;0.90;;;0.40;;
20649;SDS011;10484;48.736;9.332;2023-08-06T07:53:35;0.80;;;0.30;;
20649;SDS011;10484;48.736;9.332;2023-08-06T07:56:00;1.07;;;0.60;;
20649;SDS011;10484;48.736;9.332;2023-08-06T07:58:27;0.50;;;0.30;;
20649;SDS011;10484;48.736;9.332;2023-08-06T08:00:54;0.50;;;0.40;;
20649;SDS011;10484;48.736;9.332;2023-08-06T08:03:20;0.97;;;0.40;;
20649;SDS011;10484;48.736;9.332;2023-08-06T08:05:45;0.83;;;0.30;;
20649;SDS011;10484;48.736;9.332;2023-08-06T08:08:11;0.47;;;0.30;;
20649;SDS011;10484;48.736;9.332;2023-08-06T08:10:37;0.50;;;0.40;;
20649;SDS011;10484;48.736;9.332;2023-08-06T08:13:03;0.47;;;0.40;;
20649;SDS011;10484;48.736;9.332;2023-08-06T08:15:30;0.60;;;0.30;;
20649;SDS011;10484;48.736;9.332;2023-08-06T08:17:56;1.70;;;0.30;;
20649;SDS011;10484;48.736;9.332;2023-08-06T08:20:22;0.50;;;0.30;;
20649;SDS011;10484;48.736;9.332;2023-08-06T08:22:48;0.60;;;0.40;;
20649;SDS011;10484;48.736;9.332;2023-08-06T08:25:14;0.60;;;0.33;;
20649;SDS011;10484;48.736;9.332;2023-08-06T08:27:40;1.50;;;0.40;;
20649;SDS011;10484;48.736;9.332;2023-08-06T08:30:06;0.50;;;0.30;;
20649;SDS011;10484;48.736;9.332;2023-08-06T08:32:32;1.37;;;0.47;;
20649;SDS011;10484;48.736;9.332;2023-08-06T08:34:57;0.50;;;0.30;;
20649;SDS011;10484;48.736;9.332;2023-08-06T08:37:23;0.50;;;0.30;;
20649;SDS011;10484;48.736;9.332;2023-08-06T08:39:49;0.50;;;0.33;;
20649;SDS011;10484;48.736;9.332;2023-08-06T08:42:15;0.77;;;0.40;;
20649;SDS011;10484;48.736;9.332;2023-08-06T08:44:41;0.43;;;0.30;;
20649;SDS011;10484;48.736;9.332;2023-08-06T08:47:07;0.53;;;0.30;;
20649;SDS011;10484;48.736;9.332;2023-08-06T08:49:34;0.40;;;0.30;;
20649;SDS011;10484;48.736;9.332;2023-08-06T08:52:01;0.40;;;0.30;;
20649;SDS011;10484;48.736;9.332;2023-08-06T08:54:28;0.40;;;0.30;;
20649;SDS011;10484;48.736;9.332;2023-08-06T08:56:55;0.50;;;0.30;;
20649;SDS011;10484;48.736;9.332;2023-08-06T08:59:22;0.70;;;0.30;;
20649;SDS011;10484;48.736;9.332;2023-08-06T09:01:48;0.40;;;0.30;;
20649;SDS011;10484;48.736;9.332;2023-08-06T09:04:18;0.93;;;0.30;;
20649;SDS011;10484;48.736;9.332;2023-08-06T09:06:44;0.60;;;0.30;;
20649;SDS011;10484;48.736;9.332;2023-08-06T09:09:12;0.40;;;0.30;;
20649;SDS011;10484;48.736;9.332;2023-08-06T09:11:45;0.40;;;0.30;;
20649;SDS011;10484;48.736;9.332;2023-08-06T09:14:14;2.30;;;0.30;;
20649;SDS011;10484;48.736;9.332;2023-08-06T09:16:40;1.83;;;0.40;;
20649;SDS011;10484;48.736;9.332;2023-08-06T09:19:09;0.40;;;0.30;;
20649;SDS011;10484;48.736;9.332;2023-08-06T09:21:39;0.60;;;0.30;;
20649;SDS011;10484;48.736;9.332;2023-08-06T09:24:09;1.20;;;0.37;;
20649;SDS011;10484;48.736;9.332;2023-08-06T09:26:38;1.23;;;0.30;;
20649;SDS011;10484;48.736;9.332;2023-08-06T09:29:09;1.13;;;0.20;;
20649;SDS011;10484;48.736;9.332;2023-08-06T09:31:47;0.40;;;0.30;;
20649;SDS011;10484;48.736;9.332;2023-08-06T09:34:17;0.60;;;0.30;;
20649;SDS011;10484;48.736;9.332;2023-08-06T09:36:50;0.70;;;0.30;;
20649;SDS011;10484;48.736;9.332;2023-08-06T09:39:17;0.50;;;0.40;;
20649;SDS011;10484;48.736;9.332;2023-08-06T09:41:44;0.40;;;0.30;;
20649;SDS011;10484;48.736;9.332;2023-08-06T09:44:15;0.40;;;0.30;;
20649;SDS011;10484;48.736;9.332;2023-08-06T09:46:49;0.50;;;0.30;;
20649;SDS011;10484;48.736;9.332;2023-08-06T09:49:27;0.40;;;0.30;;
20649;SDS011;10484;48.736;9.332;2023-08-06T09:51:52;0.40;;;0.30;;
20649;SDS011;10484;48.736;9.332;2023-08-06T09:54:22;1.10;;;0.40;;
20649;SDS011;10484;48.736;9.332;2023-08-06T09:56:48;1.00;;;0.30;;
20649;SDS011;10484;48.736;9.332;2023-08-06T09:59:14;0.60;;;0.40;;
20649;SDS011;10484;48.736;9.332;2023-08-06T10:01:41;0.80;;;0.33;;
20649;SDS011;10484;48.736;9.332;2023-08-06T10:04:06;0.40;;;0.30;;
20649;SDS011;10484;48.736;9.332;2023-08-06T10:06:38;0.40;;;0.30;;
20649;SDS011;10484;48.736;9.332;2023-08-06T10:09:04;0.40;;;0.30;;
20649;SDS011;10484;48.736;9.332;2023-08-06T10:11:30;0.43;;;0.30;;
20649;SDS011;10484;48.736;9.332;2023-08-06T10:14:05;1.03;;;0.20;;
20649;SDS011;10484;48.736;9.332;2023-08-06T10:16:33;0.47;;;0.30;;
20649;SDS011;10484;48.736;9.332;2023-08-06T10:18:59;0.50;;;0.30;;
20649;SDS011;10484;48.736;9.332;2023-08-06T10:21:26;0.50;;;0.30;;
20649;SDS011;10484;48.736;9.332;2023-08-06T10:23:56;0.90;;;0.30;;
20649;SDS011;10484;48.736;9.332;2023-08-06T10:26:28;0.50;;;0.30;;
20649;SDS011;10484;48.736;9.332;2023-08-06T10:28:54;0.77;;;0.30;;
20649;SDS011;10484;48.736;9.332;2023-08-06T10:31:46;0.60;;;0.40;;
20649;SDS011;10484;48.736;9.332;2023-08-06T10:34:19;0.57;;;0.30;;
20649;SDS011;10484;48.736;9.332;2023-08-06T10:36:45;0.40;;;0.30;;
20649;SDS011;10484;48.736;9.332;2023-08-06T10:39:13;0.40;;;0.30;;
20649;SDS011;10484;48.736;9.332;2023-08-06T10:41:39;0.40;;;0.30;;
20649;SDS011;10484;48.736;9.332;2023-08-06T10:44:08;0.60;;;0.30;;
20649;SDS011;10484;48.736;9.332;2023-08-06T10:46:35;0.60;;;0.40;;
20649;SDS011;10484;48.736;9.332;2023-08-06T10:49:02;0.43;;;0.30;;
20649;SDS011;10484;48.736;9.332;2023-08-06T10:51:28;0.50;;;0.30;;
20649;SDS011;10484;48.736;9.332;2023-08-06T10:53:54;2.00;;;0.30;;
20649;SDS011;10484;48.736;9.332;2023-08-06T10:56:21;0.70;;;0.30;;
20649;SDS011;10484;48.736;9.332;2023-08-06T10:58:48;0.40;;;0.30;;
20649;SDS011;10484;48.736;9.332;2023-08-06T11:01:14;0.40;;;0.30;;
20649;SDS011;10484;48.736;9.332;2023-08-06T11:03:44;0.60;;;0.37;;
20649;SDS011;10484;48.736;9.332;2023-08-06T11:06:16;0.50;;;0.30;;
20649;SDS011;10484;48.736;9.332;2023-08-06T11:08:47;2.00;;;0.30;;
20649;SDS011;10484;48.736;9.332;2023-08-06T11:11:14;0.63;;;0.30;;
20649;SDS011;10484;48.736;9.332;2023-08-06T11:13:44;0.40;;;0.30;;
20649;SDS011;10484;48.736;9.332;2023-08-06T11:16:24;0.40;;;0.30;;
20649;SDS011;10484;48.736;9.332;2023-08-06T11:18:50;0.70;;;0.30;;
20649;SDS011;10484;48.736;9.332;2023-08-06T11:21:19;0.50;;;0.30;;
20649;SDS011;10484;48.736;9.332;2023-08-06T11:23:45;0.40;;;0.30;;
20649;SDS011;10484;48.736;9.332;2023-08-06T11:26:11;0.50;;;0.30;;
20649;SDS011;10484;48.736;9.332;2023-08-06T11:28:37;0.50;;;0.30;;
20649;SDS011;10484;48.736;9.332;2023-08-06T11:31:02;0.57;;;0.50;;
20649;SDS011;10484;48.736;9.332;2023-08-06T11:33:28;0.70;;;0.40;;
20649;SDS011;10484;48.736;9.332;2023-08-06T11:35:55;0.70;;;0.30;;
20649;SDS011;10484;48.736;9.332;2023-08-06T11:38:26;0.70;;;0.40;;
20649;SDS011;10484;48.736;9.332;2023-08-06T11:40:53;0.50;;;0.40;;
20649;SDS011;10484;48.736;9.332;2023-08-06T11:43:20;0.87;;;0.40;;
20649;SDS011;10484;48.736;9.332;2023-08-06T11:45:47;0.50;;;0.40;;
20649;SDS011;10484;48.736;9.332;2023-08-06T11:48:13;0.60;;;0.33;;
20649;SDS011;10484;48.736;9.332;2023-08-06T11:50:39;0.60;;;0.50;;
20649;SDS011;10484;48.736;9.332;2023-08-06T11:53:05;0.50;;;0.50;;
20649;SDS011;10484;48.736;9.332;2023-08-06T11:55:30;0.90;;;0.50;;
20649;SDS011;10484;48.736;9.332;2023-08-06T11:57:57;2.50;;;0.60;;
20649;SDS011;10484;48.736;9.332;2023-08-06T12:00:23;1.37;;;0.50;;
20649;SDS011;10484;48.736;9.332;2023-08-06T12:02:50;0.50;;;0.50;;
20649;SDS011;10484;48.736;9.332;2023-08-06T12:05:20;1.00;;;0.70;;
20649;SDS011;10484;48.736;9.332;2023-08-06T12:07:51;0.70;;;0.50;;
20649;SDS011;10484;48.736;9.332;2023-08-06T12:10:18;0.80;;;0.60;;
20649;SDS011;10484;48.736;9.332;2023-08-06T12:12:45;0.50;;;0.50;;
20649;SDS011;10484;48.736;9.332;2023-08-06T12:15:11;0.93;;;0.60;;
20649;SDS011;10484;48.736;9.332;2023-08-06T12:17:37;1.23;;;0.60;;
20649;SDS011;10484;48.736;9.332;2023-08-06T12:20:03;1.00;;;0.80;;
20649;SDS011;10484;48.736;9.332;2023-08-06T12:22:30;2.03;;;0.70;;
20649;SDS011;10484;48.736;9.332;2023-08-06T12:25:00;0.87;;;0.60;;
20649;SDS011;10484;48.736;9.332;2023-08-06T12:27:27;0.97;;;0.60;;
20649;SDS011;10484;48.736;9.332;2023-08-06T12:29:53;0.80;;;0.73;;
20649;SDS011;10484;48.736;9.332;2023-08-06T12:32:19;1.10;;;0.70;;
20649;SDS011;10484;48.736;9.332;2023-08-06T12:34:44;1.37;;;0.90;;
20649;SDS011;10484;48.736;9.332;2023-08-06T12:37:10;0.90;;;0.70;;
20649;SDS011;10484;48.736;9.332;2023-08-06T12:39:36;1.03;;;0.80;;
20649;SDS011;10484;48.736;9.332;2023-08-06T12:42:02;0.77;;;0.77;;
20649;SDS011;10484;48.736;9.332;2023-08-06T12:44:29;1.47;;;0.60;;
20649;SDS011;10484;48.736;9.332;2023-08-06T12:46:55;1.07;;;0.80;;
20649;SDS011;10484;48.736;9.332;2023-08-06T12:49:22;0.50;;;0.50;;
20649;SDS011;10484;48.736;9.332;2023-08-06T12:51:51;0.83;;;0.57;;
20649;SDS011;10484;48.736;9.332;2023-08-06T12:54:17;1.40;;;0.87;;
20649;SDS011;10484;48.736;9.332;2023-08-06T12:56:44;2.60;;;0.80;;
20649;SDS011;10484;48.736;9.332;2023-08-06T12:59:11;1.37;;;0.50;;
20649;SDS011;10484;48.736;9.332;2023-08-06T13:01:37;0.70;;;0.53;;
20649;SDS011;10484;48.736;9.332;2023-08-06T13:04:03;0.80;;;0.60;;
20649;SDS011;10484;48.736;9.332;2023-08-06T13:06:29;0.50;;;0.40;;
20649;SDS011;10484;48.736;9.332;2023-08-06T13:08:55;1.00;;;0.50;;
20649;SDS011;10484;48.736;9.332;2023-08-06T13:11:23;1.23;;;0.53;;
20649;SDS011;10484;48.736;9.332;2023-08-06T13:13:49;0.60;;;0.50;;
20649;SDS011;10484;48.736;9.332;2023-08-06T13:16:15;1.13;;;0.77;;
20649;SDS011;10484;48.736;9.332;2023-08-06T13:18:40;0.50;;;0.40;;
20649;SDS011;10484;48.736;9.332;2023-08-06T13:21:06;0.90;;;0.60;;
20649;SDS011;10484;48.736;9.332;2023-08-06T13:23:31;0.57;;;0.50;;
20649;SDS011;10484;48.736;9.332;2023-08-06T13:25:57;0.60;;;0.60;;
20649;SDS011;10484;48.736;9.332;2023-08-06T13:28:23;1.37;;;0.77;;
20649;SDS011;10484;48.736;9.332;2023-08-06T13:30:49;1.20;;;0.60;;
20649;SDS011;10484;48.736;9.332;2023-08-06T13:33:15;0.63;;;0.63;;
20649;SDS011;10484;48.736;9.332;2023-08-06T13:35:40;0.77;;;0.77;;
20649;SDS011;10484;48.736;9.332;2023-08-06T13:38:06;1.03;;;0.93;;
20649;SDS011;10484;48.736;9.332;2023-08-06T13:40:32;1.03;;;0.70;;
20649;SDS011;10484;48.736;9.332;2023-08-06T13:42:58;0.60;;;0.60;;
20649;SDS011;10484;48.736;9.332;2023-08-06T13:45:24;0.63;;;0.63;;
20649;SDS011;10484;48.736;9.332;2023-08-06T13:47:50;0.70;;;0.50;;
20649;SDS011;10484;48.736;9.332;2023-08-06T13:50:16;1.43;;;0.50;;
20649;SDS011;10484;48.736;9.332;2023-08-06T13:52:41;1.83;;;0.73;;
20649;SDS011;10484;48.736;9.332;2023-08-06T13:55:07;0.60;;;0.50;;
20649;SDS011;10484;48.736;9.332;2023-08-06T13:57:36;1.97;;;0.70;;
20649;SDS011;10484;48.736;9.332;2023-08-06T14:00:02;0.90;;;0.53;;
20649;SDS011;10484;48.736;9.332;2023-08-06T14:02:28;0.70;;;0.43;;
20649;SDS011;10484;48.736;9.332;2023-08-06T14:04:54;0.90;;;0.60;;
20649;SDS011;10484;48.736;9.332;2023-08-06T14:07:20;0.97;;;0.60;;
20649;SDS011;10484;48.736;9.332;2023-08-06T14:09:46;1.07;;;0.50;;
20649;SDS011;10484;48.736;9.332;2023-08-06T14:12:12;0.50;;;0.40;;
20649;SDS011;10484;48.736;9.332;2023-08-06T14:14:39;1.63;;;0.37;;
20649;SDS011;10484;48.736;9.332;2023-08-06T14:17:04;0.50;;;0.40;;
20649;SDS011;10484;48.736;9.332;2023-08-06T14:19:30;1.33;;;0.50;;
20649;SDS011;10484;48.736;9.332;2023-08-06T14:21:56;0.70;;;0.60;;
20649;SDS011;10484;48.736;9.332;2023-08-06T14:24:21;0.90;;;0.50;;
20649;SDS011;10484;48.736;9.332;2023-08-06T14:26:47;0.60;;;0.50;;
20649;SDS011;10484;48.736;9.332;2023-08-06T14:29:13;0.60;;;0.53;;
20649;SDS011;10484;48.736;9.332;2023-08-06T14:31:39;0.90;;;0.57;;
20649;SDS011;10484;48.736;9.332;2023-08-06T14:34:07;0.60;;;0.50;;
20649;SDS011;10484;48.736;9.332;2023-08-06T14:36:33;0.50;;;0.40;;
20649;SDS011;10484;48.736;9.332;2023-08-06T14:38:58;0.73;;;0.60;;
20649;SDS011;10484;48.736;9.332;2023-08-06T14:41:24;1.17;;;0.63;;
20649;SDS011;10484;48.736;9.332;2023-08-06T14:43:50;0.73;;;0.50;;
20649;SDS011;10484;48.736;9.332;2023-08-06T14:46:16;0.80;;;0.60;;